createdAt,value
2019-05-07T00:01:18.918Z,86.03
2019-05-07T00:03:48.876Z,85.35
2019-05-07T00:06:18.869Z,86.25
2019-05-07T00:08:48.837Z,86.42
2019-05-07T00:11:18.841Z,84.23
2019-05-07T00:13:48.809Z,84.49
2019-05-07T00:16:18.806Z,83.69
2019-05-07T00:18:48.839Z,83.60
2019-05-07T00:21:18.838Z,83.60
2019-05-07T00:23:48.785Z,82.48
2019-05-07T00:26:18.757Z,83.89
2019-05-07T00:28:48.717Z,82.80
2019-05-07T00:31:18.711Z,83.30
2019-05-07T00:33:48.663Z,82.05
2019-05-07T00:36:33.793Z,81.83
2019-05-07T00:39:14.838Z,82.99
2019-05-07T00:41:52.195Z,82.50
2019-05-07T00:44:22.693Z,82.65
2019-05-07T00:46:52.707Z,81.86
2019-05-07T00:49:24.984Z,84.53
2019-05-07T00:51:54.978Z,82.42
2019-05-07T00:54:24.971Z,82.76
2019-05-07T00:56:54.952Z,83.69
2019-05-07T00:59:24.924Z,83.17
2019-05-07T01:01:54.928Z,83.59
2019-05-07T01:04:24.909Z,82.69
2019-05-07T01:06:54.910Z,84.77
2019-05-07T01:09:24.896Z,84.04
2019-05-07T01:11:54.970Z,84.87
2019-05-07T01:14:24.970Z,85.70
2019-05-07T01:16:54.964Z,84.50
2019-05-07T01:19:24.970Z,83.82
2019-05-07T01:21:54.942Z,84.19
2019-05-07T01:24:24.930Z,83.89
2019-05-07T01:26:54.898Z,83.91
2019-05-07T01:29:24.909Z,83.37
2019-05-07T01:32:03.216Z,82.41
2019-05-07T01:34:42.955Z,83.90
2019-05-07T01:37:12.981Z,83.27
2019-05-07T01:39:42.986Z,83.85
2019-05-07T01:42:12.981Z,82.77
2019-05-07T01:44:42.988Z,82.35
2019-05-07T01:47:13.226Z,82.07
2019-05-07T01:49:43.276Z,81.60
2019-05-07T01:52:13.539Z,82.40
2019-05-07T01:54:43.605Z,82.22
2019-05-07T01:57:13.550Z,82.81
2019-05-07T01:59:43.535Z,81.83
2019-05-07T02:02:22.769Z,83.47
2019-05-07T02:05:17.136Z,82.55
2019-05-07T02:07:53.298Z,82.40
2019-05-07T02:10:34.006Z,81.06
2019-05-07T02:13:04.048Z,80.75
2019-05-07T02:15:34.025Z,81.18
2019-05-07T02:18:04.034Z,81.13
2019-05-07T02:20:34.014Z,80.85
2019-05-07T02:23:04.072Z,81.12
2019-05-07T02:25:34.036Z,81.08
2019-05-07T02:28:04.416Z,80.93
2019-05-07T02:30:35.187Z,80.83
2019-05-07T02:33:05.592Z,80.27
2019-05-07T02:35:35.574Z,80.75
2019-05-07T02:38:24.582Z,81.18
2019-05-07T02:41:03.187Z,80.40
2019-05-07T02:43:33.938Z,81.79
2019-05-07T02:46:26.437Z,80.63
2019-05-07T02:48:54.203Z,80.30
2019-05-07T02:51:29.792Z,80.84
2019-05-07T02:54:08.662Z,81.54
2019-05-07T02:56:38.709Z,81.69
2019-05-07T02:59:08.668Z,80.73
2019-05-07T03:01:38.801Z,80.94
2019-05-07T03:04:08.789Z,80.25
2019-05-07T03:06:38.861Z,81.36
2019-05-07T03:09:08.824Z,80.16
2019-05-07T03:11:38.823Z,79.80
2019-05-07T03:14:08.910Z,80.51
2019-05-07T03:16:44.222Z,82.08
2019-05-07T03:19:13.324Z,83.16
2019-05-07T03:22:03.746Z,82.38
2019-05-07T03:24:55.598Z,83.49
2019-05-07T03:27:25.642Z,82.98
2019-05-07T03:30:16.083Z,83.43
2019-05-07T03:32:55.617Z,82.29
2019-05-07T03:35:55.636Z,82.65
2019-05-07T03:38:22.894Z,81.68
2019-05-07T03:40:53.332Z,82.37
2019-05-07T03:43:25.024Z,82.00
2019-05-07T03:46:14.422Z,81.68
2019-05-07T03:48:46.206Z,81.19
2019-05-07T03:51:16.204Z,81.67
2019-05-07T03:53:46.174Z,81.03
2019-05-07T03:56:16.177Z,81.81
2019-05-07T03:58:46.211Z,82.36
2019-05-07T04:01:16.174Z,81.17
2019-05-07T04:03:46.175Z,81.44
2019-05-07T04:06:16.126Z,81.00
2019-05-07T04:08:46.132Z,83.33
2019-05-07T04:11:16.110Z,81.53
2019-05-07T04:13:46.090Z,81.11
2019-05-07T04:16:16.067Z,81.35
2019-05-07T04:18:46.048Z,81.08
2019-05-07T04:21:16.013Z,81.87
2019-05-07T04:23:46.007Z,82.62
2019-05-07T04:26:28.059Z,81.38
2019-05-07T04:29:06.877Z,82.57
2019-05-07T04:31:43.038Z,83.91
2019-05-07T04:34:17.181Z,84.31
2019-05-07T04:36:49.108Z,84.00
2019-05-07T04:39:19.113Z,83.88
2019-05-07T04:41:49.110Z,84.17
2019-05-07T04:44:19.096Z,85.73
2019-05-07T04:46:49.071Z,86.90
2019-05-07T04:49:19.067Z,84.42
2019-05-07T04:52:03.946Z,85.52
2019-05-07T04:54:33.108Z,84.86
2019-05-07T04:57:03.783Z,86.02
2019-05-07T04:59:33.950Z,85.40
2019-05-07T05:02:13.883Z,85.81
2019-05-07T05:04:44.127Z,85.20
2019-05-07T05:07:14.168Z,84.92
2019-05-07T05:09:44.188Z,86.19
2019-05-07T05:12:14.178Z,86.07
2019-05-07T05:14:44.176Z,86.47
2019-05-07T05:17:14.161Z,88.08
2019-05-07T05:19:44.169Z,88.29
2019-05-07T05:22:36.267Z,87.69
2019-05-07T05:25:13.510Z,86.63
2019-05-07T05:27:43.493Z,86.20
2019-05-07T05:30:17.234Z,86.74
2019-05-07T05:32:47.211Z,87.95
2019-05-07T05:35:22.190Z,88.40
2019-05-07T05:37:52.308Z,88.72
2019-05-07T05:40:22.754Z,89.87
2019-05-07T05:42:58.720Z,89.34
2019-05-07T05:45:36.551Z,89.27
2019-05-07T05:48:08.526Z,89.32
2019-05-07T05:50:48.891Z,89.82
2019-05-07T05:53:33.741Z,88.85
2019-05-07T05:56:07.626Z,88.64
2019-05-07T05:58:59.397Z,88.75
2019-05-07T06:01:48.312Z,88.50
2019-05-07T06:04:25.950Z,88.32
2019-05-07T06:07:17.878Z,88.24
2019-05-07T06:10:19.222Z,88.64
2019-05-07T06:12:53.862Z,88.33
2019-05-07T06:15:42.817Z,89.12
2019-05-07T06:18:32.697Z,88.39
2019-05-07T06:21:14.192Z,87.77
2019-05-07T06:23:52.831Z,87.28
2019-05-07T06:26:22.857Z,87.51
2019-05-07T06:28:52.879Z,87.09
2019-05-07T06:31:22.818Z,86.77
2019-05-07T06:33:52.824Z,86.81
2019-05-07T06:36:22.811Z,86.51
2019-05-07T06:39:02.209Z,87.19
2019-05-07T06:41:50.117Z,86.80
2019-05-07T06:44:22.589Z,87.31
2019-05-07T06:46:52.849Z,87.06
2019-05-07T06:49:22.933Z,87.27
2019-05-07T06:51:52.975Z,86.85
2019-05-07T06:54:22.977Z,85.77
2019-05-07T06:56:52.945Z,85.90
2019-05-07T06:59:34.583Z,86.84
2019-05-07T07:02:22.530Z,86.25
2019-05-07T07:04:56.698Z,85.33
2019-05-07T07:07:37.745Z,85.29
2019-05-07T07:10:29.591Z,84.39
2019-05-07T07:12:59.579Z,83.31
2019-05-07T07:15:31.929Z,82.39
2019-05-07T07:18:03.214Z,82.39
2019-05-07T07:20:32.993Z,83.09
2019-05-07T07:23:03.038Z,80.88
2019-05-07T07:25:33.039Z,80.42
2019-05-07T07:28:03.043Z,80.02
2019-05-07T07:30:57.973Z,81.10
2019-05-07T07:33:31.980Z,80.39
2019-05-07T07:36:02.576Z,77.47
2019-05-07T07:38:33.029Z,78.32
2019-05-07T07:41:22.273Z,77.24
2019-05-07T07:43:52.658Z,75.80
2019-05-07T07:46:22.614Z,74.60
2019-05-07T07:49:06.666Z,74.42
2019-05-07T07:51:37.744Z,74.91
2019-05-07T07:53:55.974Z,72.97
2019-05-07T07:56:53.895Z,71.67
2019-05-07T07:59:32.896Z,71.01
2019-05-07T08:02:23.158Z,70.34
2019-05-07T08:04:53.107Z,68.20
2019-05-07T08:07:23.124Z,70.55
2019-05-07T08:09:53.119Z,70.25
2019-05-07T08:12:23.121Z,69.66
2019-05-07T08:14:53.093Z,68.43
2019-05-07T08:17:23.115Z,69.99
2019-05-07T08:19:53.175Z,67.03
2019-05-07T08:22:23.198Z,66.32
2019-05-07T08:24:53.199Z,65.79
2019-05-07T08:27:23.197Z,65.69
2019-05-07T08:29:53.193Z,65.67
2019-05-07T08:32:52.920Z,64.94
2019-05-07T08:35:27.269Z,64.85
2019-05-07T08:37:57.295Z,61.41
2019-05-07T08:40:27.302Z,62.71
2019-05-07T08:42:58.489Z,62.78
2019-05-07T08:45:46.233Z,61.37
2019-05-07T08:48:21.712Z,60.64
2019-05-07T08:50:52.542Z,61.18
2019-05-07T08:53:22.747Z,59.86
2019-05-07T08:55:52.737Z,58.52
2019-05-07T08:58:23.133Z,57.67
2019-05-07T09:00:53.127Z,59.28
2019-05-07T09:03:42.901Z,57.99
2019-05-07T09:06:13.642Z,58.79
2019-05-07T09:08:43.798Z,58.73
2019-05-07T09:11:13.858Z,60.02
2019-05-07T09:13:44.039Z,60.19
2019-05-07T09:16:14.029Z,60.06
2019-05-07T09:18:44.057Z,60.40
2019-05-07T09:21:14.099Z,59.96
2019-05-07T09:23:44.198Z,57.19
2019-05-07T09:26:16.076Z,58.09
2019-05-07T09:28:53.181Z,57.60
2019-05-07T09:31:37.221Z,58.54
2019-05-07T09:34:07.272Z,57.88
2019-05-07T09:36:44.063Z,58.78
2019-05-07T09:39:14.078Z,57.45
2019-05-07T09:41:44.143Z,57.08
2019-05-07T09:44:14.171Z,57.12
2019-05-07T09:46:46.657Z,57.32
2019-05-07T09:49:15.895Z,57.54
2019-05-07T09:51:45.882Z,58.11
2019-05-07T09:54:15.957Z,59.36
2019-05-07T09:56:45.932Z,57.70
2019-05-07T09:59:15.957Z,58.51
2019-05-07T10:01:45.953Z,60.67
2019-05-07T10:04:15.974Z,57.53
2019-05-07T10:06:45.997Z,57.61
2019-05-07T10:09:16.007Z,56.19
2019-05-07T10:11:55.628Z,57.84
2019-05-07T10:14:25.650Z,56.88
2019-05-07T10:17:11.986Z,54.93
2019-05-07T10:19:42.053Z,55.60
2019-05-07T10:22:12.638Z,55.84
2019-05-07T10:24:42.751Z,55.42
2019-05-07T10:27:12.838Z,55.45
2019-05-07T10:29:42.893Z,55.02
2019-05-07T10:32:12.996Z,55.25
2019-05-07T10:34:43.032Z,55.58
2019-05-07T10:37:13.023Z,54.72
2019-05-07T10:39:43.157Z,52.66
2019-05-07T10:42:13.110Z,52.66
2019-05-07T10:45:04.851Z,50.29
2019-05-07T10:47:58.606Z,51.36
2019-05-07T10:50:36.359Z,51.47
2019-05-07T10:53:02.056Z,51.43
2019-05-07T10:55:32.898Z,51.03
2019-05-07T10:58:03.157Z,50.33
2019-05-07T11:00:33.437Z,51.63
2019-05-07T11:03:03.442Z,51.48
2019-05-07T11:05:33.494Z,50.33
2019-05-07T11:08:03.475Z,48.44
2019-05-07T11:10:33.510Z,48.65
2019-05-07T11:13:03.480Z,49.72
2019-05-07T11:15:33.781Z,49.50
2019-05-07T11:18:25.018Z,47.48
2019-05-07T11:20:55.098Z,49.09
2019-05-07T11:23:25.081Z,47.09
2019-05-07T11:25:55.118Z,47.29
2019-05-07T11:28:25.085Z,50.72
2019-05-07T11:30:55.093Z,52.92
2019-05-07T11:33:25.069Z,48.95
2019-05-07T11:35:55.081Z,48.32
2019-05-07T11:38:25.176Z,49.95
2019-05-07T11:40:55.189Z,45.04
2019-05-07T11:43:42.644Z,45.43
2019-05-07T11:46:16.572Z,45.54
2019-05-07T11:48:54.625Z,44.34
2019-05-07T11:51:36.257Z,43.29
2019-05-07T11:54:09.256Z,45.48
2019-05-07T11:56:42.915Z,47.12
2019-05-07T12:00:32.160Z,46.63
2019-05-07T12:11:36.480Z,46.92
2019-05-07T12:14:06.785Z,46.73
2019-05-07T12:16:36.827Z,48.22
2019-05-07T12:19:06.934Z,48.26
2019-05-07T12:21:36.978Z,48.85
2019-05-07T12:24:07.038Z,49.20
2019-05-07T12:26:38.696Z,48.25
2019-05-07T12:29:08.674Z,46.97
2019-05-07T12:31:56.520Z,47.49
2019-05-07T12:34:31.848Z,46.83
2019-05-07T12:37:01.924Z,46.25
2019-05-07T12:39:32.032Z,44.82
2019-05-07T12:42:02.870Z,44.13
2019-05-07T12:44:32.866Z,44.77
2019-05-07T12:47:02.984Z,43.43
2019-05-07T12:49:33.008Z,44.67
2019-05-07T12:52:25.254Z,45.40
2019-05-07T12:55:03.235Z,45.42
2019-05-07T12:57:33.323Z,44.76
2019-05-07T13:00:22.932Z,45.71
2019-05-07T13:03:12.604Z,46.01
2019-05-07T13:05:42.283Z,45.69
2019-05-07T13:08:12.400Z,45.14
2019-05-07T13:10:42.928Z,43.95
2019-05-07T13:13:13.026Z,44.53
2019-05-07T13:15:43.438Z,42.68
2019-05-07T13:18:13.526Z,43.29
2019-05-07T13:20:43.513Z,43.01
2019-05-07T13:23:13.526Z,42.79
2019-05-07T13:25:43.560Z,43.13
2019-05-07T13:28:13.588Z,42.15
2019-05-07T13:30:43.968Z,42.17
2019-05-07T13:33:14.734Z,43.59
2019-05-07T13:35:44.731Z,46.62
2019-05-07T13:38:49.048Z,45.04
2019-05-07T13:41:56.139Z,46.77
2019-05-07T13:44:45.408Z,46.23
2019-05-07T13:47:43.333Z,43.99
2019-05-07T13:50:16.659Z,45.43
2019-05-07T13:52:46.693Z,45.15
2019-05-07T13:55:16.679Z,44.60
2019-05-07T13:57:46.678Z,44.98
2019-05-07T14:00:32.450Z,44.04
2019-05-07T14:03:03.245Z,44.81
2019-05-07T14:05:37.411Z,45.28
2019-05-07T14:08:19.527Z,44.80
2019-05-07T14:11:22.344Z,44.78
2019-05-07T14:13:52.327Z,45.03
2019-05-07T14:20:07.338Z,45.25
2019-05-07T14:22:37.316Z,46.36
2019-05-07T14:25:07.819Z,45.06
2019-05-07T14:27:37.844Z,44.82
2019-05-07T14:30:08.614Z,45.78
2019-05-07T14:33:01.797Z,47.16
2019-05-07T14:35:57.952Z,46.68
2019-05-07T14:38:42.521Z,45.94
2019-05-07T14:41:13.012Z,46.72
2019-05-07T14:44:01.105Z,45.86
2019-05-07T14:46:44.635Z,46.27
2019-05-07T14:49:02.922Z,45.79
2019-05-07T14:51:32.888Z,45.20
2019-05-07T14:54:02.918Z,45.33
2019-05-07T14:56:33.124Z,45.41
2019-05-07T14:59:03.157Z,45.49
2019-05-07T15:01:33.969Z,45.48
2019-05-07T15:04:04.236Z,45.56
2019-05-07T15:06:34.623Z,45.27
2019-05-07T15:09:06.685Z,45.23
2019-05-07T15:11:37.006Z,45.89
2019-05-07T15:14:07.046Z,43.84
2019-05-07T15:16:37.343Z,42.96
2019-05-07T15:19:07.447Z,43.01
2019-05-07T15:21:37.439Z,43.55
2019-05-07T15:24:07.466Z,44.28
2019-05-07T15:26:37.462Z,42.81
2019-05-07T15:29:13.349Z,44.05
2019-05-07T15:32:03.195Z,43.02
2019-05-07T15:34:32.922Z,43.29
2019-05-07T15:37:02.883Z,44.31
2019-05-07T15:39:33.058Z,44.08
2019-05-07T15:42:03.081Z,43.93
2019-05-07T15:44:33.102Z,44.63
2019-05-07T15:47:07.272Z,44.70
2019-05-07T15:49:37.376Z,44.29
2019-05-07T15:56:07.728Z,45.12
2019-05-07T15:58:37.824Z,46.03
2019-05-07T16:01:07.896Z,44.81
2019-05-07T16:03:42.856Z,44.71
2019-05-07T16:06:12.944Z,45.21
2019-05-07T16:08:52.013Z,44.82
2019-05-07T16:11:23.244Z,43.72
2019-05-07T16:14:14.552Z,44.55
2019-05-07T16:16:46.682Z,44.26
2019-05-07T16:19:27.203Z,44.57
2019-05-07T16:21:59.585Z,44.37
2019-05-07T16:24:31.794Z,44.66
2019-05-07T16:27:04.922Z,44.72
2019-05-07T16:29:35.646Z,46.46
2019-05-07T16:32:04.817Z,45.56
2019-05-07T16:34:34.902Z,44.63
2019-05-07T16:37:07.487Z,45.44
2019-05-07T16:39:36.660Z,44.88
2019-05-07T16:42:06.723Z,44.75
2019-05-07T16:44:36.710Z,45.36
2019-05-07T16:47:06.752Z,45.06
2019-05-07T16:49:36.752Z,45.36
2019-05-07T16:52:06.773Z,44.53
2019-05-07T16:54:36.752Z,44.88
2019-05-07T16:57:42.344Z,44.73
2019-05-07T17:00:17.664Z,44.84
2019-05-07T17:02:48.914Z,45.03
2019-05-07T17:05:18.954Z,44.73
2019-05-07T17:08:14.203Z,45.02
2019-05-07T17:10:44.692Z,44.71
2019-05-07T17:13:14.678Z,44.35
2019-05-07T17:18:41.600Z,43.51
2019-05-07T17:21:12.359Z,44.27
2019-05-07T17:23:44.639Z,44.49
2019-05-07T17:26:14.540Z,44.35
2019-05-07T17:28:44.524Z,43.55
2019-05-07T17:31:14.557Z,43.45
2019-05-07T17:33:44.536Z,44.11
2019-05-07T17:36:14.580Z,45.29
2019-05-07T17:38:44.596Z,45.40
2019-05-07T17:41:22.196Z,44.51
2019-05-07T17:43:46.653Z,44.70
2019-05-07T17:46:16.697Z,44.73
2019-05-07T17:48:46.707Z,44.54
2019-05-07T17:51:35.680Z,46.35
2019-05-07T17:54:43.187Z,45.59
2019-05-07T17:57:15.795Z,45.73
2019-05-07T18:03:33.593Z,45.98
2019-05-07T18:06:03.805Z,46.42
2019-05-07T18:08:33.843Z,46.62
2019-05-07T18:11:17.362Z,46.95
2019-05-07T18:13:35.626Z,47.64
2019-05-07T18:16:12.253Z,46.92
2019-05-07T18:18:43.211Z,47.51
2019-05-07T18:21:13.361Z,48.39
2019-05-07T18:23:43.482Z,48.79
2019-05-07T18:26:26.904Z,48.39
2019-05-07T18:28:45.285Z,48.26
2019-05-07T18:31:15.903Z,50.07
2019-05-07T18:33:53.184Z,50.66
2019-05-07T18:36:23.198Z,49.63
2019-05-07T18:38:53.281Z,49.40
2019-05-07T18:41:23.403Z,51.33
2019-05-07T18:43:54.672Z,51.29
2019-05-07T18:46:24.924Z,52.44
2019-05-07T18:48:54.970Z,52.99
2019-05-07T18:51:25.052Z,51.64
2019-05-07T18:53:55.113Z,53.10
2019-05-07T18:56:25.119Z,53.38
2019-05-07T18:58:55.169Z,53.41
2019-05-07T19:01:27.142Z,54.07
2019-05-07T19:03:57.873Z,54.37
2019-05-07T19:06:27.895Z,54.28
2019-05-07T19:08:57.908Z,54.28
2019-05-07T19:11:27.933Z,54.46
2019-05-07T19:13:57.983Z,54.69
2019-05-07T19:16:27.970Z,54.63
2019-05-07T19:18:58.014Z,55.05
2019-05-07T19:21:28.028Z,55.19
2019-05-07T19:23:58.098Z,55.44
2019-05-07T19:26:28.127Z,55.64
2019-05-07T19:28:58.189Z,55.95
2019-05-07T19:31:28.188Z,55.74
2019-05-07T19:33:58.259Z,56.24
2019-05-07T19:36:28.384Z,56.58
2019-05-07T19:38:58.418Z,56.58
2019-05-07T19:41:28.485Z,56.58
2019-05-07T19:43:58.531Z,56.61
2019-05-07T19:46:28.589Z,57.13
2019-05-07T19:48:58.653Z,57.13
2019-05-07T19:51:28.663Z,57.04
2019-05-07T19:53:58.697Z,57.37
2019-05-07T19:56:28.715Z,57.67
2019-05-07T19:58:58.826Z,57.79
2019-05-07T20:01:45.766Z,58.11
2019-05-07T20:04:15.841Z,58.10
2019-05-07T20:06:45.874Z,58.66
2019-05-07T20:09:17.833Z,61.54
2019-05-07T20:11:49.009Z,60.37
2019-05-07T20:14:19.019Z,60.06
2019-05-07T20:16:49.025Z,60.06
2019-05-07T20:19:19.069Z,60.04
2019-05-07T20:21:49.082Z,60.31
2019-05-07T20:24:19.105Z,60.15
2019-05-07T20:26:49.091Z,59.93
2019-05-07T20:29:19.158Z,60.13
2019-05-07T20:31:49.203Z,60.02
2019-05-07T20:34:19.208Z,60.10
2019-05-07T20:36:49.226Z,60.13
2019-05-07T20:39:19.255Z,60.12
2019-05-07T20:41:49.318Z,59.91
2019-05-07T20:44:19.387Z,59.60
2019-05-07T20:46:49.578Z,59.89
2019-05-07T20:49:19.614Z,59.51
2019-05-07T20:51:49.643Z,60.45
2019-05-07T20:54:36.611Z,61.45
2019-05-07T20:57:22.314Z,61.38
2019-05-07T20:59:51.709Z,61.51
2019-05-07T21:02:22.713Z,61.36
2019-05-07T21:04:52.950Z,61.31
2019-05-07T21:07:22.956Z,60.94
2019-05-07T21:09:53.139Z,60.52
2019-05-07T21:12:23.158Z,60.50
2019-05-07T21:14:53.252Z,60.65
2019-05-07T21:17:23.250Z,60.70
2019-05-07T21:19:53.280Z,60.79
2019-05-07T21:22:23.302Z,60.82
2019-05-07T21:24:53.512Z,60.75
2019-05-07T21:27:23.637Z,61.07
2019-05-07T21:29:53.630Z,60.55
2019-05-07T21:32:23.653Z,60.55
2019-05-07T21:34:53.653Z,60.98
2019-05-07T21:37:23.774Z,60.89
2019-05-07T21:39:54.122Z,61.01
2019-05-07T21:42:24.210Z,61.21
2019-05-07T21:44:54.285Z,61.57
2019-05-07T21:47:24.308Z,62.27
2019-05-07T21:49:55.257Z,64.10
2019-05-07T21:52:27.326Z,64.46
2019-05-07T21:55:10.121Z,63.64
2019-05-07T21:57:59.089Z,63.47
2019-05-07T22:01:03.416Z,62.64
2019-05-07T22:03:34.974Z,63.15
2019-05-07T22:06:05.119Z,63.50
2019-05-07T22:08:35.103Z,62.89
2019-05-07T22:11:05.169Z,64.10
2019-05-07T22:13:35.151Z,64.56
2019-05-07T22:16:05.157Z,64.75
2019-05-07T22:18:35.137Z,65.34
2019-05-07T22:21:05.144Z,65.75
2019-05-07T22:23:35.191Z,64.83
2019-05-07T22:26:19.219Z,63.70
2019-05-07T22:28:37.626Z,63.80
2019-05-07T22:31:34.469Z,63.63
2019-05-07T22:34:22.256Z,63.91
2019-05-07T22:36:55.020Z,64.05
2019-05-07T22:39:23.757Z,64.75
2019-05-07T22:41:53.750Z,64.68
2019-05-07T22:44:26.228Z,66.68
2019-05-07T22:46:57.706Z,66.83
2019-05-07T22:49:27.680Z,66.79
2019-05-07T22:51:57.726Z,65.20
2019-05-07T22:54:27.704Z,64.31
2019-05-07T22:57:03.177Z,66.93
2019-05-07T22:59:33.160Z,66.02
2019-05-07T23:02:04.179Z,66.92
2019-05-07T23:04:34.151Z,66.35
2019-05-07T23:07:04.142Z,68.27
2019-05-07T23:09:34.114Z,67.31
2019-05-07T23:12:04.108Z,67.33
2019-05-07T23:14:34.081Z,67.22
2019-05-07T23:17:04.091Z,66.66
2019-05-07T23:19:34.088Z,65.49
2019-05-07T23:22:04.061Z,65.24
2019-05-07T23:24:34.064Z,65.09
2019-05-07T23:27:04.040Z,65.55
2019-05-07T23:29:34.042Z,64.79
2019-05-07T23:32:04.031Z,64.33
2019-05-07T23:34:34.046Z,64.08
2019-05-07T23:37:04.016Z,64.00
2019-05-07T23:39:35.986Z,65.46
2019-05-07T23:42:28.006Z,66.48
2019-05-07T23:44:58.008Z,66.88
2019-05-07T23:47:27.976Z,66.72
2019-05-07T23:49:57.982Z,66.96
2019-05-07T23:52:27.947Z,66.26
2019-05-07T23:54:57.979Z,67.17
2019-05-07T23:57:27.942Z,67.97
2019-05-07T23:59:57.924Z,68.05
